sensor_id;sensor_type;location;lat;lon;timestamp;P1;durP1;ratioP1;P2;durP2;ratioP2
29634;SDS011;16557;54.762;56.068;2023-03-23T00:01:29;22.45;;;14.75;;
29634;SDS011;16557;54.762;56.068;2023-03-23T00:04:00;28.45;;;16.50;;
29634;SDS011;16557;54.762;56.068;2023-03-23T00:06:30;26.20;;;16.23;;
29634;SDS011;16557;54.762;56.068;2023-03-23T00:09:00;23.65;;;15.08;;
29634;SDS011;16557;54.762;56.068;2023-03-23T00:11:31;29.57;;;16.35;;
29634;SDS011;16557;54.762;56.068;2023-03-23T00:14:01;29.20;;;16.15;;
29634;SDS011;16557;54.762;56.068;2023-03-23T00:16:31;25.35;;;16.00;;
29634;SDS011;16557;54.762;56.068;2023-03-23T00:19:03;25.62;;;15.90;;
29634;SDS011;16557;54.762;56.068;2023-03-23T00:21:35;24.47;;;14.98;;
29634;SDS011;16557;54.762;56.068;2023-03-23T00:24:06;23.85;;;14.90;;
29634;SDS011;16557;54.762;56.068;2023-03-23T00:26:38;26.50;;;16.02;;
29634;SDS011;16557;54.762;56.068;2023-03-23T00:29:15;27.27;;;16.05;;
29634;SDS011;16557;54.762;56.068;2023-03-23T00:31:46;26.65;;;16.52;;
29634;SDS011;16557;54.762;56.068;2023-03-23T00:34:17;28.65;;;16.50;;
29634;SDS011;16557;54.762;56.068;2023-03-23T00:36:49;28.32;;;16.93;;
29634;SDS011;16557;54.762;56.068;2023-03-23T00:39:22;26.80;;;16.27;;
29634;SDS011;16557;54.762;56.068;2023-03-23T00:41:54;26.90;;;15.00;;
29634;SDS011;16557;54.762;56.068;2023-03-23T00:44:26;26.35;;;14.75;;
29634;SDS011;16557;54.762;56.068;2023-03-23T00:46:55;28.30;;;14.75;;
29634;SDS011;16557;54.762;56.068;2023-03-23T00:49:25;26.42;;;15.30;;
29634;SDS011;16557;54.762;56.068;2023-03-23T00:51:56;27.35;;;15.08;;
29634;SDS011;16557;54.762;56.068;2023-03-23T00:54:26;24.07;;;15.15;;
29634;SDS011;16557;54.762;56.068;2023-03-23T00:56:55;26.25;;;16.25;;
29634;SDS011;16557;54.762;56.068;2023-03-23T00:59:25;29.02;;;16.82;;
29634;SDS011;16557;54.762;56.068;2023-03-23T01:01:54;31.77;;;16.52;;
29634;SDS011;16557;54.762;56.068;2023-03-23T01:04:27;31.50;;;18.15;;
29634;SDS011;16557;54.762;56.068;2023-03-23T01:06:57;34.75;;;18.20;;
29634;SDS011;16557;54.762;56.068;2023-03-23T01:09:28;26.87;;;16.23;;
29634;SDS011;16557;54.762;56.068;2023-03-23T01:11:58;27.05;;;16.45;;
29634;SDS011;16557;54.762;56.068;2023-03-23T01:14:27;31.20;;;17.35;;
29634;SDS011;16557;54.762;56.068;2023-03-23T01:16:56;27.05;;;15.85;;
29634;SDS011;16557;54.762;56.068;2023-03-23T01:19:26;27.05;;;15.35;;
29634;SDS011;16557;54.762;56.068;2023-03-23T01:21:55;30.12;;;18.10;;
29634;SDS011;16557;54.762;56.068;2023-03-23T01:24:24;28.50;;;17.87;;
29634;SDS011;16557;54.762;56.068;2023-03-23T01:26:54;31.33;;;17.55;;
29634;SDS011;16557;54.762;56.068;2023-03-23T01:29:23;31.93;;;17.67;;
29634;SDS011;16557;54.762;56.068;2023-03-23T01:31:53;27.77;;;17.12;;
29634;SDS011;16557;54.762;56.068;2023-03-23T01:34:22;27.58;;;16.50;;
29634;SDS011;16557;54.762;56.068;2023-03-23T01:36:51;27.62;;;17.23;;
29634;SDS011;16557;54.762;56.068;2023-03-23T01:39:21;29.87;;;16.75;;
29634;SDS011;16557;54.762;56.068;2023-03-23T01:41:50;30.32;;;17.23;;
29634;SDS011;16557;54.762;56.068;2023-03-23T01:46:51;29.25;;;19.17;;
29634;SDS011;16557;54.762;56.068;2023-03-23T01:49:23;32.67;;;18.05;;
29634;SDS011;16557;54.762;56.068;2023-03-23T01:52:00;31.00;;;16.77;;
29634;SDS011;16557;54.762;56.068;2023-03-23T01:54:31;28.38;;;17.42;;
29634;SDS011;16557;54.762;56.068;2023-03-23T01:57:02;28.10;;;16.20;;
29634;SDS011;16557;54.762;56.068;2023-03-23T01:59:34;29.95;;;17.40;;
29634;SDS011;16557;54.762;56.068;2023-03-23T02:02:04;39.78;;;21.10;;
29634;SDS011;16557;54.762;56.068;2023-03-23T02:04:33;26.37;;;16.48;;
29634;SDS011;16557;54.762;56.068;2023-03-23T02:07:02;30.77;;;16.55;;
29634;SDS011;16557;54.762;56.068;2023-03-23T02:09:32;31.73;;;16.50;;
29634;SDS011;16557;54.762;56.068;2023-03-23T02:12:02;32.83;;;18.35;;
29634;SDS011;16557;54.762;56.068;2023-03-23T02:14:31;33.15;;;18.25;;
29634;SDS011;16557;54.762;56.068;2023-03-23T02:22:42;30.55;;;16.82;;
29634;SDS011;16557;54.762;56.068;2023-03-23T02:25:40;34.25;;;18.77;;
29634;SDS011;16557;54.762;56.068;2023-03-23T02:33:58;29.85;;;17.42;;
29634;SDS011;16557;54.762;56.068;2023-03-23T02:36:43;30.35;;;17.95;;
29634;SDS011;16557;54.762;56.068;2023-03-23T02:39:17;31.95;;;18.65;;
29634;SDS011;16557;54.762;56.068;2023-03-23T02:41:52;34.98;;;18.27;;
29634;SDS011;16557;54.762;56.068;2023-03-23T02:44:27;33.85;;;18.57;;
29634;SDS011;16557;54.762;56.068;2023-03-23T02:46:57;32.50;;;19.37;;
29634;SDS011;16557;54.762;56.068;2023-03-23T02:49:28;36.93;;;20.08;;
29634;SDS011;16557;54.762;56.068;2023-03-23T02:51:59;33.13;;;19.27;;
29634;SDS011;16557;54.762;56.068;2023-03-23T02:54:30;33.88;;;19.23;;
29634;SDS011;16557;54.762;56.068;2023-03-23T02:57:00;34.58;;;21.17;;
29634;SDS011;16557;54.762;56.068;2023-03-23T02:59:30;35.83;;;18.80;;
29634;SDS011;16557;54.762;56.068;2023-03-23T03:02:04;40.83;;;20.57;;
29634;SDS011;16557;54.762;56.068;2023-03-23T03:04:34;38.83;;;21.23;;
29634;SDS011;16557;54.762;56.068;2023-03-23T03:07:08;32.85;;;20.00;;
29634;SDS011;16557;54.762;56.068;2023-03-23T03:09:49;34.88;;;19.65;;
29634;SDS011;16557;54.762;56.068;2023-03-23T03:15:21;32.73;;;18.57;;
29634;SDS011;16557;54.762;56.068;2023-03-23T03:18:08;34.70;;;19.20;;
29634;SDS011;16557;54.762;56.068;2023-03-23T03:20:40;35.70;;;19.77;;
29634;SDS011;16557;54.762;56.068;2023-03-23T03:23:11;32.35;;;19.87;;
29634;SDS011;16557;54.762;56.068;2023-03-23T03:25:41;34.40;;;20.10;;
29634;SDS011;16557;54.762;56.068;2023-03-23T03:28:17;30.70;;;18.27;;
29634;SDS011;16557;54.762;56.068;2023-03-23T03:30:54;32.13;;;19.48;;
29634;SDS011;16557;54.762;56.068;2023-03-23T03:33:21;31.80;;;18.17;;
29634;SDS011;16557;54.762;56.068;2023-03-23T03:35:54;34.53;;;18.48;;
29634;SDS011;16557;54.762;56.068;2023-03-23T03:38:24;32.73;;;19.82;;
29634;SDS011;16557;54.762;56.068;2023-03-23T03:40:54;33.05;;;18.02;;
29634;SDS011;16557;54.762;56.068;2023-03-23T03:43:24;31.93;;;17.70;;
29634;SDS011;16557;54.762;56.068;2023-03-23T03:45:53;29.77;;;17.55;;
29634;SDS011;16557;54.762;56.068;2023-03-23T03:48:22;27.87;;;17.02;;
29634;SDS011;16557;54.762;56.068;2023-03-23T03:50:52;29.92;;;17.70;;
29634;SDS011;16557;54.762;56.068;2023-03-23T03:53:23;26.55;;;16.82;;
29634;SDS011;16557;54.762;56.068;2023-03-23T03:55:52;28.92;;;18.62;;
29634;SDS011;16557;54.762;56.068;2023-03-23T04:00:59;27.10;;;16.57;;
29634;SDS011;16557;54.762;56.068;2023-03-23T04:03:28;29.35;;;16.20;;
29634;SDS011;16557;54.762;56.068;2023-03-23T04:05:57;25.57;;;16.57;;
29634;SDS011;16557;54.762;56.068;2023-03-23T04:08:28;27.70;;;15.85;;
29634;SDS011;16557;54.762;56.068;2023-03-23T04:10:57;26.07;;;16.35;;
29634;SDS011;16557;54.762;56.068;2023-03-23T04:13:26;27.22;;;15.63;;
29634;SDS011;16557;54.762;56.068;2023-03-23T04:15:56;23.62;;;15.23;;
29634;SDS011;16557;54.762;56.068;2023-03-23T04:18:25;29.37;;;18.48;;
29634;SDS011;16557;54.762;56.068;2023-03-23T04:20:55;27.07;;;15.80;;
29634;SDS011;16557;54.762;56.068;2023-03-23T04:23:27;26.52;;;15.78;;
29634;SDS011;16557;54.762;56.068;2023-03-23T04:25:57;30.00;;;15.18;;
29634;SDS011;16557;54.762;56.068;2023-03-23T04:28:27;27.17;;;15.68;;
29634;SDS011;16557;54.762;56.068;2023-03-23T04:30:56;26.50;;;15.38;;
29634;SDS011;16557;54.762;56.068;2023-03-23T04:33:28;35.95;;;21.42;;
29634;SDS011;16557;54.762;56.068;2023-03-23T04:35:59;23.80;;;14.98;;
29634;SDS011;16557;54.762;56.068;2023-03-23T04:38:29;22.58;;;15.15;;
29634;SDS011;16557;54.762;56.068;2023-03-23T04:41:00;26.75;;;15.88;;
29634;SDS011;16557;54.762;56.068;2023-03-23T04:43:29;24.60;;;14.60;;
29634;SDS011;16557;54.762;56.068;2023-03-23T04:46:00;22.55;;;14.25;;
29634;SDS011;16557;54.762;56.068;2023-03-23T04:48:30;23.00;;;14.33;;
29634;SDS011;16557;54.762;56.068;2023-03-23T04:51:01;20.43;;;13.55;;
29634;SDS011;16557;54.762;56.068;2023-03-23T04:53:33;25.20;;;14.70;;
29634;SDS011;16557;54.762;56.068;2023-03-23T04:56:03;25.25;;;13.05;;
29634;SDS011;16557;54.762;56.068;2023-03-23T04:58:32;24.02;;;13.55;;
29634;SDS011;16557;54.762;56.068;2023-03-23T05:01:02;23.95;;;13.68;;
29634;SDS011;16557;54.762;56.068;2023-03-23T05:03:32;39.63;;;15.15;;
29634;SDS011;16557;54.762;56.068;2023-03-23T05:06:02;34.90;;;13.75;;
29634;SDS011;16557;54.762;56.068;2023-03-23T05:08:32;20.20;;;12.88;;
29634;SDS011;16557;54.762;56.068;2023-03-23T05:11:01;17.92;;;12.18;;
29634;SDS011;16557;54.762;56.068;2023-03-23T05:13:30;23.77;;;14.60;;
29634;SDS011;16557;54.762;56.068;2023-03-23T05:16:05;22.90;;;14.30;;
29634;SDS011;16557;54.762;56.068;2023-03-23T05:18:32;28.27;;;14.10;;
29634;SDS011;16557;54.762;56.068;2023-03-23T05:21:01;32.00;;;15.00;;
29634;SDS011;16557;54.762;56.068;2023-03-23T05:23:31;24.32;;;14.65;;
29634;SDS011;16557;54.762;56.068;2023-03-23T05:26:01;19.82;;;11.68;;
29634;SDS011;16557;54.762;56.068;2023-03-23T05:28:30;21.95;;;12.47;;
29634;SDS011;16557;54.762;56.068;2023-03-23T05:30:59;18.10;;;11.75;;
29634;SDS011;16557;54.762;56.068;2023-03-23T05:33:28;18.42;;;11.75;;
29634;SDS011;16557;54.762;56.068;2023-03-23T05:35:58;18.67;;;11.08;;
29634;SDS011;16557;54.762;56.068;2023-03-23T05:38:28;18.77;;;11.18;;
29634;SDS011;16557;54.762;56.068;2023-03-23T05:40:58;17.45;;;10.75;;
29634;SDS011;16557;54.762;56.068;2023-03-23T05:43:28;16.77;;;11.03;;
29634;SDS011;16557;54.762;56.068;2023-03-23T05:45:57;19.57;;;11.20;;
29634;SDS011;16557;54.762;56.068;2023-03-23T05:48:27;13.30;;;9.65;;
29634;SDS011;16557;54.762;56.068;2023-03-23T05:50:56;13.70;;;9.35;;
29634;SDS011;16557;54.762;56.068;2023-03-23T05:53:26;15.10;;;10.15;;
29634;SDS011;16557;54.762;56.068;2023-03-23T05:56:00;14.10;;;8.85;;
29634;SDS011;16557;54.762;56.068;2023-03-23T05:58:30;13.05;;;9.25;;
29634;SDS011;16557;54.762;56.068;2023-03-23T06:01:00;12.55;;;8.28;;
29634;SDS011;16557;54.762;56.068;2023-03-23T06:03:29;15.95;;;10.20;;
29634;SDS011;16557;54.762;56.068;2023-03-23T06:05:58;16.17;;;9.73;;
29634;SDS011;16557;54.762;56.068;2023-03-23T06:08:27;16.50;;;9.25;;
29634;SDS011;16557;54.762;56.068;2023-03-23T06:10:57;13.62;;;8.93;;
29634;SDS011;16557;54.762;56.068;2023-03-23T06:13:27;11.70;;;8.50;;
29634;SDS011;16557;54.762;56.068;2023-03-23T06:15:56;15.93;;;9.13;;
29634;SDS011;16557;54.762;56.068;2023-03-23T06:18:25;12.20;;;8.20;;
29634;SDS011;16557;54.762;56.068;2023-03-23T06:20:56;13.35;;;8.28;;
29634;SDS011;16557;54.762;56.068;2023-03-23T06:23:25;12.47;;;8.55;;
29634;SDS011;16557;54.762;56.068;2023-03-23T06:26:03;12.65;;;7.95;;
29634;SDS011;16557;54.762;56.068;2023-03-23T06:28:33;15.28;;;8.43;;
29634;SDS011;16557;54.762;56.068;2023-03-23T06:31:04;10.18;;;7.22;;
29634;SDS011;16557;54.762;56.068;2023-03-23T06:33:35;12.53;;;7.55;;
29634;SDS011;16557;54.762;56.068;2023-03-23T06:36:05;10.65;;;7.50;;
29634;SDS011;16557;54.762;56.068;2023-03-23T06:38:34;9.15;;;6.33;;
29634;SDS011;16557;54.762;56.068;2023-03-23T06:41:04;11.00;;;6.17;;
29634;SDS011;16557;54.762;56.068;2023-03-23T06:43:34;11.38;;;7.75;;
29634;SDS011;16557;54.762;56.068;2023-03-23T06:46:05;8.45;;;6.35;;
29634;SDS011;16557;54.762;56.068;2023-03-23T06:48:35;8.93;;;5.30;;
29634;SDS011;16557;54.762;56.068;2023-03-23T06:51:05;8.73;;;5.45;;
29634;SDS011;16557;54.762;56.068;2023-03-23T06:53:35;9.13;;;5.87;;
29634;SDS011;16557;54.762;56.068;2023-03-23T06:56:04;13.68;;;8.33;;
29634;SDS011;16557;54.762;56.068;2023-03-23T06:58:34;10.00;;;6.20;;
29634;SDS011;16557;54.762;56.068;2023-03-23T07:01:03;8.35;;;5.40;;
29634;SDS011;16557;54.762;56.068;2023-03-23T07:03:34;10.15;;;6.45;;
29634;SDS011;16557;54.762;56.068;2023-03-23T07:06:04;8.60;;;6.22;;
29634;SDS011;16557;54.762;56.068;2023-03-23T07:08:34;12.90;;;6.33;;
29634;SDS011;16557;54.762;56.068;2023-03-23T07:11:04;11.22;;;6.67;;
29634;SDS011;16557;54.762;56.068;2023-03-23T07:13:33;8.50;;;5.55;;
29634;SDS011;16557;54.762;56.068;2023-03-23T07:16:04;9.70;;;6.58;;
29634;SDS011;16557;54.762;56.068;2023-03-23T07:18:33;10.50;;;6.05;;
29634;SDS011;16557;54.762;56.068;2023-03-23T07:21:03;9.75;;;5.80;;
29634;SDS011;16557;54.762;56.068;2023-03-23T07:23:33;8.33;;;5.50;;
29634;SDS011;16557;54.762;56.068;2023-03-23T07:26:03;8.15;;;5.47;;
29634;SDS011;16557;54.762;56.068;2023-03-23T07:28:32;8.18;;;5.42;;
29634;SDS011;16557;54.762;56.068;2023-03-23T07:31:03;8.50;;;5.30;;
29634;SDS011;16557;54.762;56.068;2023-03-23T07:33:32;10.03;;;5.33;;
29634;SDS011;16557;54.762;56.068;2023-03-23T07:36:03;7.40;;;5.15;;
29634;SDS011;16557;54.762;56.068;2023-03-23T07:38:33;8.85;;;5.20;;
29634;SDS011;16557;54.762;56.068;2023-03-23T07:41:05;8.75;;;5.17;;
29634;SDS011;16557;54.762;56.068;2023-03-23T07:43:34;8.83;;;5.65;;
29634;SDS011;16557;54.762;56.068;2023-03-23T07:46:04;7.12;;;5.33;;
29634;SDS011;16557;54.762;56.068;2023-03-23T07:48:33;9.75;;;6.12;;
29634;SDS011;16557;54.762;56.068;2023-03-23T07:51:03;11.15;;;5.55;;
29634;SDS011;16557;54.762;56.068;2023-03-23T07:53:33;7.47;;;5.37;;
29634;SDS011;16557;54.762;56.068;2023-03-23T07:56:03;12.15;;;7.30;;
29634;SDS011;16557;54.762;56.068;2023-03-23T07:58:32;9.15;;;6.72;;
29634;SDS011;16557;54.762;56.068;2023-03-23T08:01:02;7.60;;;6.08;;
29634;SDS011;16557;54.762;56.068;2023-03-23T08:03:31;11.28;;;6.45;;
29634;SDS011;16557;54.762;56.068;2023-03-23T08:06:01;10.43;;;5.60;;
29634;SDS011;16557;54.762;56.068;2023-03-23T08:08:31;6.20;;;4.75;;
29634;SDS011;16557;54.762;56.068;2023-03-23T08:11:01;7.37;;;4.85;;
29634;SDS011;16557;54.762;56.068;2023-03-23T08:13:30;9.33;;;5.08;;
29634;SDS011;16557;54.762;56.068;2023-03-23T08:16:00;6.05;;;4.67;;
29634;SDS011;16557;54.762;56.068;2023-03-23T08:18:31;6.42;;;4.42;;
29634;SDS011;16557;54.762;56.068;2023-03-23T08:21:03;7.22;;;3.87;;
29634;SDS011;16557;54.762;56.068;2023-03-23T08:23:33;8.63;;;4.30;;
29634;SDS011;16557;54.762;56.068;2023-03-23T08:26:03;8.63;;;5.45;;
29634;SDS011;16557;54.762;56.068;2023-03-23T08:28:34;7.72;;;4.95;;
29634;SDS011;16557;54.762;56.068;2023-03-23T08:31:06;6.95;;;4.37;;
29634;SDS011;16557;54.762;56.068;2023-03-23T08:33:37;7.10;;;4.58;;
29634;SDS011;16557;54.762;56.068;2023-03-23T08:36:06;5.65;;;4.25;;
29634;SDS011;16557;54.762;56.068;2023-03-23T08:38:36;6.10;;;4.22;;
29634;SDS011;16557;54.762;56.068;2023-03-23T08:41:05;7.97;;;5.75;;
29634;SDS011;16557;54.762;56.068;2023-03-23T08:43:36;18.17;;;11.38;;
29634;SDS011;16557;54.762;56.068;2023-03-23T08:46:07;10.15;;;5.47;;
29634;SDS011;16557;54.762;56.068;2023-03-23T08:48:37;7.78;;;4.70;;
29634;SDS011;16557;54.762;56.068;2023-03-23T08:51:07;7.58;;;4.92;;
29634;SDS011;16557;54.762;56.068;2023-03-23T08:53:38;6.28;;;4.62;;
29634;SDS011;16557;54.762;56.068;2023-03-23T08:56:09;5.85;;;4.50;;
29634;SDS011;16557;54.762;56.068;2023-03-23T08:58:40;5.72;;;4.35;;
29634;SDS011;16557;54.762;56.068;2023-03-23T09:01:09;8.03;;;4.97;;
29634;SDS011;16557;54.762;56.068;2023-03-23T09:03:38;5.53;;;4.20;;
29634;SDS011;16557;54.762;56.068;2023-03-23T09:06:08;8.88;;;5.12;;
29634;SDS011;16557;54.762;56.068;2023-03-23T09:08:39;6.15;;;4.87;;
29634;SDS011;16557;54.762;56.068;2023-03-23T09:11:09;7.62;;;5.70;;
29634;SDS011;16557;54.762;56.068;2023-03-23T09:13:39;7.97;;;4.83;;
29634;SDS011;16557;54.762;56.068;2023-03-23T09:16:08;5.37;;;4.55;;
29634;SDS011;16557;54.762;56.068;2023-03-23T09:18:37;7.12;;;4.60;;
29634;SDS011;16557;54.762;56.068;2023-03-23T09:21:07;8.90;;;5.08;;
29634;SDS011;16557;54.762;56.068;2023-03-23T09:23:36;11.20;;;6.03;;
29634;SDS011;16557;54.762;56.068;2023-03-23T09:26:06;7.90;;;5.28;;
29634;SDS011;16557;54.762;56.068;2023-03-23T09:28:35;7.17;;;4.70;;
29634;SDS011;16557;54.762;56.068;2023-03-23T09:31:05;6.60;;;5.53;;
29634;SDS011;16557;54.762;56.068;2023-03-23T09:33:35;6.70;;;5.12;;
29634;SDS011;16557;54.762;56.068;2023-03-23T09:36:04;8.15;;;4.35;;
29634;SDS011;16557;54.762;56.068;2023-03-23T09:38:35;9.98;;;4.67;;
29634;SDS011;16557;54.762;56.068;2023-03-23T09:41:16;5.78;;;4.35;;
29634;SDS011;16557;54.762;56.068;2023-03-23T09:43:43;6.87;;;4.73;;
29634;SDS011;16557;54.762;56.068;2023-03-23T09:49:05;7.12;;;3.67;;
29634;SDS011;16557;54.762;56.068;2023-03-23T09:54:23;4.50;;;3.72;;
29634;SDS011;16557;54.762;56.068;2023-03-23T09:56:57;6.22;;;3.22;;
29634;SDS011;16557;54.762;56.068;2023-03-23T09:59:34;5.47;;;4.58;;
29634;SDS011;16557;54.762;56.068;2023-03-23T10:02:15;6.50;;;3.62;;
29634;SDS011;16557;54.762;56.068;2023-03-23T10:04:47;8.20;;;4.55;;
29634;SDS011;16557;54.762;56.068;2023-03-23T10:07:26;4.93;;;4.23;;
29634;SDS011;16557;54.762;56.068;2023-03-23T10:09:56;4.67;;;3.50;;
29634;SDS011;16557;54.762;56.068;2023-03-23T10:15:25;6.60;;;4.10;;
29634;SDS011;16557;54.762;56.068;2023-03-23T10:18:03;7.78;;;4.10;;
29634;SDS011;16557;54.762;56.068;2023-03-23T10:26:00;7.70;;;4.17;;
29634;SDS011;16557;54.762;56.068;2023-03-23T10:28:35;6.70;;;3.92;;
29634;SDS011;16557;54.762;56.068;2023-03-23T10:30:57;9.20;;;3.60;;
29634;SDS011;16557;54.762;56.068;2023-03-23T10:33:35;6.83;;;3.50;;
29634;SDS011;16557;54.762;56.068;2023-03-23T10:39:09;5.00;;;3.15;;
29634;SDS011;16557;54.762;56.068;2023-03-23T10:41:47;7.08;;;3.87;;
29634;SDS011;16557;54.762;56.068;2023-03-23T10:44:17;6.33;;;3.77;;
29634;SDS011;16557;54.762;56.068;2023-03-23T10:49:30;6.85;;;4.00;;
29634;SDS011;16557;54.762;56.068;2023-03-23T10:55:07;7.47;;;3.55;;
29634;SDS011;16557;54.762;56.068;2023-03-23T10:57:39;9.48;;;4.50;;
29634;SDS011;16557;54.762;56.068;2023-03-23T11:00:22;6.10;;;3.62;;
29634;SDS011;16557;54.762;56.068;2023-03-23T11:03:03;8.67;;;4.77;;
29634;SDS011;16557;54.762;56.068;2023-03-23T11:05:38;6.12;;;4.00;;
29634;SDS011;16557;54.762;56.068;2023-03-23T11:08:12;7.28;;;4.03;;
29634;SDS011;16557;54.762;56.068;2023-03-23T11:10:53;6.50;;;3.72;;
29634;SDS011;16557;54.762;56.068;2023-03-23T11:13:29;5.15;;;3.67;;
29634;SDS011;16557;54.762;56.068;2023-03-23T11:15:57;6.28;;;4.15;;
29634;SDS011;16557;54.762;56.068;2023-03-23T11:18:35;7.97;;;4.08;;
29634;SDS011;16557;54.762;56.068;2023-03-23T11:21:07;10.48;;;6.28;;
29634;SDS011;16557;54.762;56.068;2023-03-23T11:23:46;8.60;;;4.83;;
29634;SDS011;16557;54.762;56.068;2023-03-23T11:26:21;7.47;;;4.45;;
29634;SDS011;16557;54.762;56.068;2023-03-23T11:28:58;6.75;;;4.65;;
29634;SDS011;16557;54.762;56.068;2023-03-23T11:31:32;8.33;;;4.42;;
29634;SDS011;16557;54.762;56.068;2023-03-23T11:34:04;7.70;;;5.08;;
29634;SDS011;16557;54.762;56.068;2023-03-23T11:36:53;9.98;;;5.60;;
29634;SDS011;16557;54.762;56.068;2023-03-23T11:39:28;6.58;;;4.20;;
29634;SDS011;16557;54.762;56.068;2023-03-23T11:42:12;8.65;;;4.47;;
29634;SDS011;16557;54.762;56.068;2023-03-23T11:44:44;9.40;;;4.65;;
29634;SDS011;16557;54.762;56.068;2023-03-23T11:50:01;7.90;;;5.08;;
29634;SDS011;16557;54.762;56.068;2023-03-23T11:52:58;6.92;;;4.47;;
29634;SDS011;16557;54.762;56.068;2023-03-23T11:55:26;7.90;;;4.47;;
29634;SDS011;16557;54.762;56.068;2023-03-23T11:58:00;10.25;;;4.90;;
29634;SDS011;16557;54.762;56.068;2023-03-23T12:00:28;7.33;;;4.78;;
29634;SDS011;16557;54.762;56.068;2023-03-23T12:03:02;8.00;;;4.87;;
29634;SDS011;16557;54.762;56.068;2023-03-23T12:05:45;8.30;;;4.85;;
29634;SDS011;16557;54.762;56.068;2023-03-23T12:11:25;8.08;;;5.33;;
29634;SDS011;16557;54.762;56.068;2023-03-23T12:13:59;10.90;;;5.22;;
29634;SDS011;16557;54.762;56.068;2023-03-23T12:19:18;6.90;;;4.78;;
29634;SDS011;16557;54.762;56.068;2023-03-23T12:22:00;10.45;;;5.78;;
29634;SDS011;16557;54.762;56.068;2023-03-23T12:25:01;7.35;;;5.17;;
29634;SDS011;16557;54.762;56.068;2023-03-23T12:27:39;8.10;;;5.40;;
29634;SDS011;16557;54.762;56.068;2023-03-23T12:30:12;12.03;;;6.28;;
29634;SDS011;16557;54.762;56.068;2023-03-23T12:33:07;13.48;;;6.05;;
29634;SDS011;16557;54.762;56.068;2023-03-23T12:38:23;7.62;;;5.58;;
29634;SDS011;16557;54.762;56.068;2023-03-23T12:41:12;7.10;;;5.30;;
29634;SDS011;16557;54.762;56.068;2023-03-23T12:46:36;10.28;;;5.22;;
29634;SDS011;16557;54.762;56.068;2023-03-23T12:54:27;12.03;;;5.70;;
29634;SDS011;16557;54.762;56.068;2023-03-23T12:56:58;9.98;;;6.15;;
29634;SDS011;16557;54.762;56.068;2023-03-23T12:59:50;10.58;;;5.75;;
29634;SDS011;16557;54.762;56.068;2023-03-23T13:02:30;13.75;;;6.45;;
29634;SDS011;16557;54.762;56.068;2023-03-23T13:05:06;10.35;;;6.22;;
29634;SDS011;16557;54.762;56.068;2023-03-23T13:07:49;12.45;;;5.95;;
29634;SDS011;16557;54.762;56.068;2023-03-23T13:10:28;9.95;;;6.25;;
29634;SDS011;16557;54.762;56.068;2023-03-23T13:13:02;9.13;;;6.17;;
29634;SDS011;16557;54.762;56.068;2023-03-23T13:23:41;10.18;;;5.87;;
29634;SDS011;16557;54.762;56.068;2023-03-23T13:26:13;9.28;;;5.97;;
29634;SDS011;16557;54.762;56.068;2023-03-23T13:28:56;10.95;;;5.92;;
29634;SDS011;16557;54.762;56.068;2023-03-23T13:31:30;11.73;;;6.55;;
29634;SDS011;16557;54.762;56.068;2023-03-23T13:34:01;9.65;;;5.47;;
29634;SDS011;16557;54.762;56.068;2023-03-23T13:36:42;14.18;;;5.55;;
29634;SDS011;16557;54.762;56.068;2023-03-23T13:39:18;8.23;;;5.80;;
29634;SDS011;16557;54.762;56.068;2023-03-23T13:42:05;10.38;;;5.40;;
29634;SDS011;16557;54.762;56.068;2023-03-23T13:44:43;9.45;;;5.55;;
29634;SDS011;16557;54.762;56.068;2023-03-23T13:49:55;16.87;;;9.28;;
29634;SDS011;16557;54.762;56.068;2023-03-23T13:53:12;39.63;;;24.15;;
29634;SDS011;16557;54.762;56.068;2023-03-23T13:55:17;20.05;;;9.90;;
29634;SDS011;16557;54.762;56.068;2023-03-23T13:57:52;20.97;;;7.90;;
29634;SDS011;16557;54.762;56.068;2023-03-23T14:03:19;18.07;;;9.15;;
29634;SDS011;16557;54.762;56.068;2023-03-23T14:14:02;17.45;;;8.88;;
29634;SDS011;16557;54.762;56.068;2023-03-23T14:16:39;20.23;;;10.05;;
29634;SDS011;16557;54.762;56.068;2023-03-23T14:19:17;14.40;;;9.13;;
29634;SDS011;16557;54.762;56.068;2023-03-23T14:21:51;13.50;;;7.70;;
29634;SDS011;16557;54.762;56.068;2023-03-23T14:24:26;13.90;;;7.53;;
29634;SDS011;16557;54.762;56.068;2023-03-23T14:27:13;16.45;;;7.35;;
29634;SDS011;16557;54.762;56.068;2023-03-23T14:29:44;13.88;;;7.85;;
29634;SDS011;16557;54.762;56.068;2023-03-23T14:32:14;11.57;;;7.37;;
29634;SDS011;16557;54.762;56.068;2023-03-23T14:34:48;12.82;;;6.50;;
29634;SDS011;16557;54.762;56.068;2023-03-23T14:37:18;10.68;;;7.03;;
29634;SDS011;16557;54.762;56.068;2023-03-23T14:39:48;10.72;;;7.12;;
29634;SDS011;16557;54.762;56.068;2023-03-23T14:42:26;16.50;;;7.15;;
29634;SDS011;16557;54.762;56.068;2023-03-23T14:44:52;11.70;;;7.60;;
29634;SDS011;16557;54.762;56.068;2023-03-23T14:47:22;17.05;;;10.85;;
29634;SDS011;16557;54.762;56.068;2023-03-23T14:49:58;13.28;;;8.35;;
29634;SDS011;16557;54.762;56.068;2023-03-23T14:52:34;17.17;;;8.13;;
29634;SDS011;16557;54.762;56.068;2023-03-23T14:55:11;16.40;;;9.15;;
29634;SDS011;16557;54.762;56.068;2023-03-23T14:57:42;11.88;;;7.22;;
29634;SDS011;16557;54.762;56.068;2023-03-23T15:00:14;14.30;;;8.08;;
29634;SDS011;16557;54.762;56.068;2023-03-23T15:02:46;12.82;;;7.47;;
29634;SDS011;16557;54.762;56.068;2023-03-23T15:05:26;11.53;;;6.78;;
29634;SDS011;16557;54.762;56.068;2023-03-23T15:08:00;12.78;;;7.10;;
29634;SDS011;16557;54.762;56.068;2023-03-23T15:10:29;13.75;;;7.08;;
29634;SDS011;16557;54.762;56.068;2023-03-23T15:12:59;14.07;;;7.60;;
29634;SDS011;16557;54.762;56.068;2023-03-23T15:15:29;11.90;;;6.80;;
29634;SDS011;16557;54.762;56.068;2023-03-23T15:18:03;19.67;;;11.43;;
29634;SDS011;16557;54.762;56.068;2023-03-23T15:20:32;16.27;;;8.13;;
29634;SDS011;16557;54.762;56.068;2023-03-23T15:23:15;13.83;;;8.25;;
29634;SDS011;16557;54.762;56.068;2023-03-23T15:25:52;11.80;;;6.75;;
29634;SDS011;16557;54.762;56.068;2023-03-23T15:28:38;18.07;;;9.58;;
29634;SDS011;16557;54.762;56.068;2023-03-23T15:31:03;16.75;;;7.53;;
29634;SDS011;16557;54.762;56.068;2023-03-23T15:33:36;15.65;;;7.80;;
29634;SDS011;16557;54.762;56.068;2023-03-23T15:36:15;14.83;;;9.15;;
29634;SDS011;16557;54.762;56.068;2023-03-23T15:38:44;18.27;;;8.08;;
29634;SDS011;16557;54.762;56.068;2023-03-23T15:41:22;17.87;;;10.43;;
29634;SDS011;16557;54.762;56.068;2023-03-23T15:43:55;19.20;;;10.63;;
29634;SDS011;16557;54.762;56.068;2023-03-23T15:46:29;13.90;;;9.45;;
29634;SDS011;16557;54.762;56.068;2023-03-23T15:51:30;18.07;;;10.68;;
29634;SDS011;16557;54.762;56.068;2023-03-23T15:54:00;14.25;;;9.88;;
29634;SDS011;16557;54.762;56.068;2023-03-23T15:56:29;20.57;;;13.93;;
29634;SDS011;16557;54.762;56.068;2023-03-23T15:58:59;16.67;;;10.32;;
29634;SDS011;16557;54.762;56.068;2023-03-23T16:01:28;15.40;;;10.32;;
29634;SDS011;16557;54.762;56.068;2023-03-23T16:04:04;16.17;;;10.58;;
29634;SDS011;16557;54.762;56.068;2023-03-23T16:06:34;18.70;;;12.53;;
29634;SDS011;16557;54.762;56.068;2023-03-23T16:09:04;15.90;;;11.18;;
29634;SDS011;16557;54.762;56.068;2023-03-23T16:11:36;20.80;;;12.10;;
29634;SDS011;16557;54.762;56.068;2023-03-23T16:14:05;17.45;;;11.10;;
29634;SDS011;16557;54.762;56.068;2023-03-23T16:16:42;19.15;;;11.80;;